Time;durP1;ratioP1;P1;durP2;ratioP2;P2;SDS_P1;SDS_P2;PMS_P1;PMS_P2;Temp;Humidity;BMP_temperature;BMP_pressure;BME280_temperature;BME280_humidity;BME280_pressure;Samples;Min_cycle;Max_cycle;Signal;HPM_P1;HPM_P2
2023/05/08 00:01:30;;;;;;;14.60;13.20;;;13.70;99.90;;;;;;4973478;28;94955;-75
2023/05/08 00:03:57;;;;;;;15.60;14.00;;;13.60;99.90;;;;;;4975906;28;92608;-75
2023/05/08 00:06:24;;;;;;;14.40;12.98;;;13.60;99.90;;;;;;4975477;28;93246;-75
2023/05/08 00:08:51;;;;;;;14.77;13.27;;;13.50;99.90;;;;;;4975136;28;93000;-75
2023/05/08 00:11:18;;;;;;;15.90;14.20;;;13.50;99.90;;;;;;4975501;28;92366;-75
2023/05/08 00:13:44;;;;;;;14.73;13.27;;;13.40;99.90;;;;;;4974028;28;92635;-75
2023/05/08 00:16:12;;;;;;;14.65;13.25;;;13.40;99.90;;;;;;4975253;28;93257;-75
2023/05/08 00:18:39;;;;;;;14.35;12.95;;;13.40;99.90;;;;;;4974232;28;98902;-75
2023/05/08 00:21:06;;;;;;;14.00;12.57;;;13.30;99.90;;;;;;4974778;28;93047;-75
2023/05/08 00:23:33;;;;;;;15.50;13.90;;;13.30;99.90;;;;;;4990521;28;92653;-75
2023/05/08 00:26:00;;;;;;;15.43;13.93;;;13.30;99.90;;;;;;4973917;28;95696;-75
2023/05/08 00:28:27;;;;;;;14.40;12.77;;;13.20;99.90;;;;;;4957377;28;96430;-75
2023/05/08 00:30:54;;;;;;;15.15;13.65;;;13.20;99.90;;;;;;4974032;28;92936;-75
2023/05/08 00:33:21;;;;;;;14.82;13.15;;;13.10;99.90;;;;;;4975354;28;92443;-75
2023/05/08 00:35:48;;;;;;;14.63;12.98;;;13.10;99.90;;;;;;4973587;28;93326;-75
2023/05/08 00:38:15;;;;;;;15.48;13.98;;;13.10;99.90;;;;;;4973714;28;95755;-75
2023/05/08 00:40:42;;;;;;;16.85;13.57;;;13.00;99.90;;;;;;4974243;28;92427;-75
2023/05/08 00:43:09;;;;;;;14.93;13.05;;;13.00;99.90;;;;;;4974465;28;91813;-75
2023/05/08 00:45:38;;;;;;;14.43;12.93;;;13.00;99.90;;;;;;4975182;28;93260;-75
2023/05/08 00:48:06;;;;;;;14.43;13.00;;;13.00;99.90;;;;;;4957244;28;93151;-75
2023/05/08 00:50:35;;;;;;;15.75;14.15;;;12.90;99.90;;;;;;4973830;28;94908;-75
2023/05/08 00:53:03;;;;;;;16.23;14.60;;;12.90;99.90;;;;;;4973542;28;94330;-75
2023/05/08 00:55:31;;;;;;;15.65;14.05;;;12.90;99.90;;;;;;4957316;28;95780;-75
2023/05/08 00:57:59;;;;;;;15.98;13.95;;;12.80;99.90;;;;;;4973361;28;95818;-75
2023/05/08 01:00:26;;;;;;;15.38;13.88;;;12.80;99.90;;;;;;4974198;28;92583;-75
2023/05/08 01:02:53;;;;;;;14.95;13.43;;;12.80;99.90;;;;;;4960273;28;92583;-75
2023/05/08 01:05:20;;;;;;;15.75;14.05;;;12.80;99.90;;;;;;4978520;28;93273;-75
2023/05/08 01:07:47;;;;;;;15.07;13.68;;;12.70;99.90;;;;;;4977535;28;93059;-75
2023/05/08 01:10:15;;;;;;;17.15;14.50;;;12.70;99.90;;;;;;4976882;28;92586;-75
2023/05/08 01:13:08;;;;;;;15.85;14.20;;;12.70;99.90;;;;;;4960581;28;92559;-75
2023/05/08 01:15:57;;;;;;;15.88;13.98;;;12.80;99.90;;;;;;4976694;28;95907;-75
2023/05/08 01:18:37;;;;;;;14.73;13.32;;;12.70;99.90;;;;;;4993195;28;98181;-75
2023/05/08 01:21:28;;;;;;;15.40;13.80;;;12.70;99.90;;;;;;4977988;28;93025;-75
2023/05/08 01:24:06;;;;;;;15.65;14.07;;;12.70;99.90;;;;;;4976859;28;92449;-75
2023/05/08 01:26:55;;;;;;;16.88;15.20;;;12.70;99.90;;;;;;4993180;28;95722;-75
2023/05/08 01:29:42;;;;;;;15.10;13.60;;;12.60;99.90;;;;;;4993105;28;95587;-75
2023/05/08 01:32:49;;;;;;;15.23;13.25;;;12.60;99.90;;;;;;4976509;28;92424;-75
2023/05/08 01:35:20;;;;;;;15.18;13.57;;;12.60;99.90;;;;;;4993620;28;91843;-75
2023/05/08 01:38:08;;;;;;;15.93;14.15;;;12.50;99.90;;;;;;4976437;28;95926;-75
2023/05/08 01:40:55;;;;;;;14.75;13.35;;;12.60;99.90;;;;;;4978074;28;93115;-75
2023/05/08 01:43:48;;;;;;;16.05;14.45;;;12.60;99.90;;;;;;4975274;28;94917;-75
2023/05/08 01:46:27;;;;;;;17.77;14.20;;;12.50;99.90;;;;;;4961732;28;92428;-75
2023/05/08 01:49:08;;;;;;;18.73;14.32;;;12.50;99.90;;;;;;4959936;28;95856;-75
2023/05/08 01:51:45;;;;;;;15.40;13.90;;;12.50;99.90;;;;;;4993034;28;95570;-75
2023/05/08 01:54:21;;;;;;;16.15;14.55;;;12.50;99.90;;;;;;4976129;28;92485;-75
2023/05/08 01:56:51;;;;;;;15.77;14.27;;;12.50;99.90;;;;;;4992842;28;92589;-74
2023/05/08 01:59:22;;;;;;;15.57;13.98;;;12.40;99.90;;;;;;4960168;28;95655;-75
2023/05/08 02:01:53;;;;;;;15.05;13.52;;;12.40;99.90;;;;;;4960254;28;95609;-75
2023/05/08 02:04:21;;;;;;;15.02;13.43;;;12.50;99.90;;;;;;4977529;28;92390;-75
2023/05/08 02:06:51;;;;;;;15.10;13.50;;;12.40;99.90;;;;;;4992783;28;92505;-75
2023/05/08 02:09:21;;;;;;;15.75;14.20;;;12.40;99.90;;;;;;4974615;28;98264;-75
2023/05/08 02:11:50;;;;;;;14.85;13.45;;;12.40;99.90;;;;;;4975551;28;96686;-75
2023/05/08 02:14:19;;;;;;;15.23;13.35;;;12.40;99.90;;;;;;4977138;28;92472;-75
2023/05/08 02:16:49;;;;;;;15.18;13.27;;;12.30;99.90;;;;;;4977165;28;92413;-75
2023/05/08 02:19:18;;;;;;;15.63;14.02;;;12.30;99.90;;;;;;4977122;28;93555;-75
2023/05/08 02:21:47;;;;;;;14.68;13.27;;;12.30;99.90;;;;;;4992108;28;98331;-75
2023/05/08 02:24:14;;;;;;;15.30;13.80;;;12.30;99.90;;;;;;4976945;28;93366;-75
2023/05/08 02:26:43;;;;;;;15.57;13.98;;;12.20;99.90;;;;;;4992824;28;91870;-75
2023/05/08 02:29:10;;;;;;;14.18;12.70;;;12.20;99.90;;;;;;4975569;28;93034;-75
2023/05/08 02:31:40;;;;;;;14.80;13.25;;;12.10;99.90;;;;;;4976755;28;93997;-75
2023/05/08 02:34:09;;;;;;;15.68;14.02;;;12.10;99.90;;;;;;4974454;28;95286;-75
2023/05/08 02:36:37;;;;;;;14.70;13.27;;;12.10;99.90;;;;;;4975490;28;92464;-75
2023/05/08 02:39:06;;;;;;;14.98;12.82;;;12.10;99.90;;;;;;4958987;28;95767;-75
2023/05/08 02:41:35;;;;;;;14.80;13.40;;;12.00;99.90;;;;;;4975425;28;95626;-75
2023/05/08 02:44:02;;;;;;;15.05;13.55;;;12.00;99.90;;;;;;4992089;28;92381;-75
2023/05/08 02:46:54;;;;;;;14.30;12.90;;;12.00;99.90;;;;;;4975519;28;92550;-75
2023/05/08 02:49:32;;;;;;;14.85;13.30;;;12.00;99.90;;;;;;4959196;28;95504;-75
2023/05/08 02:52:12;;;;;;;14.82;13.38;;;11.90;99.90;;;;;;4992234;28;94433;-75
2023/05/08 02:54:50;;;;;;;15.43;13.48;;;11.90;99.90;;;;;;4992044;28;92447;-75
2023/05/08 02:57:36;;;;;;;15.27;13.68;;;11.90;99.90;;;;;;4975264;28;92505;-75
2023/05/08 03:00:11;;;;;;;15.00;13.52;;;11.90;99.90;;;;;;4990514;28;98224;-75
2023/05/08 03:02:42;;;;;;;15.02;13.52;;;11.90;99.90;;;;;;4975045;28;98068;-75
2023/05/08 03:05:15;;;;;;;14.88;13.38;;;11.90;99.90;;;;;;4974892;28;92456;-75
2023/05/08 03:07:44;;;;;;;15.30;13.80;;;11.80;99.90;;;;;;4975257;28;92471;-76
2023/05/08 03:10:14;;;;;;;14.25;12.75;;;11.80;99.90;;;;;;4974700;28;95422;-75
2023/05/08 03:12:47;;;;;;;15.32;13.68;;;11.80;99.90;;;;;;4974906;28;95574;-75
2023/05/08 03:15:30;;;;;;;15.13;13.63;;;11.80;99.90;;;;;;4974878;28;92553;-75
2023/05/08 03:18:09;;;;;;;15.05;13.45;;;11.80;99.90;;;;;;4976890;28;91615;-75
2023/05/08 03:20:43;;;;;;;16.38;14.00;;;11.70;99.90;;;;;;4990885;28;95890;-75
2023/05/08 03:23:12;;;;;;;15.15;13.55;;;11.70;99.90;;;;;;4990965;28;93247;-75
2023/05/08 03:25:42;;;;;;;15.15;13.73;;;11.70;99.90;;;;;;4973675;28;94825;-75
2023/05/08 03:28:10;;;;;;;15.50;13.75;;;11.70;99.90;;;;;;4974688;28;92496;-75
2023/05/08 03:30:41;;;;;;;14.55;13.07;;;11.70;99.90;;;;;;4974611;28;95510;-75
2023/05/08 03:33:12;;;;;;;15.52;14.02;;;11.70;99.90;;;;;;4974439;28;95610;-75
2023/05/08 03:35:40;;;;;;;15.18;13.57;;;11.70;99.90;;;;;;4974764;28;92541;-75
2023/05/08 03:38:08;;;;;;;14.40;13.00;;;11.60;99.90;;;;;;4991367;28;92537;-75
2023/05/08 03:40:37;;;;;;;15.82;14.07;;;11.60;99.90;;;;;;4991423;28;95466;-75
2023/05/08 03:43:09;;;;;;;15.85;14.25;;;11.60;99.90;;;;;;4958758;28;95406;-75
2023/05/08 03:45:37;;;;;;;14.68;12.77;;;11.60;99.90;;;;;;4976162;28;92427;-75
2023/05/08 03:48:06;;;;;;;14.93;13.32;;;11.60;99.90;;;;;;4958339;28;92479;-75
2023/05/08 03:50:36;;;;;;;13.65;12.45;;;11.50;99.90;;;;;;4956797;28;98337;-75
2023/05/08 03:53:04;;;;;;;16.83;12.85;;;11.50;99.90;;;;;;4974244;28;97779;-75
2023/05/08 03:55:32;;;;;;;14.65;13.13;;;11.50;99.90;;;;;;4958170;28;92480;-75
2023/05/08 03:58:05;;;;;;;15.60;14.00;;;11.50;99.90;;;;;;4990760;28;92477;-75
2023/05/08 04:00:51;;;;;;;14.55;12.70;;;11.50;99.90;;;;;;4974049;28;95514;-75
2023/05/08 04:03:24;;;;;;;14.73;13.20;;;11.50;99.90;;;;;;4990498;28;95577;-75
2023/05/08 04:06:01;;;;;;;14.50;13.07;;;11.50;99.90;;;;;;4975993;28;92856;-75
2023/05/08 04:08:33;;;;;;;14.88;13.27;;;11.50;99.90;;;;;;4990886;28;92329;-75
2023/05/08 04:11:08;;;;;;;14.38;12.98;;;11.40;99.90;;;;;;4974125;28;96022;-75
2023/05/08 04:13:42;;;;;;;16.10;13.55;;;11.40;99.90;;;;;;4974341;28;93000;-75
2023/05/08 04:16:16;;;;;;;16.60;14.85;;;11.40;99.90;;;;;;4974373;28;95398;-75
2023/05/08 04:18:46;;;;;;;14.93;13.40;;;11.40;99.90;;;;;;4973851;28;92579;-75
2023/05/08 04:21:19;;;;;;;13.43;12.02;;;11.40;99.90;;;;;;4973741;28;95786;-75
2023/05/08 04:23:49;;;;;;;14.20;12.80;;;11.40;99.90;;;;;;4974013;28;95475;-75
2023/05/08 04:26:17;;;;;;;14.38;12.98;;;11.40;99.90;;;;;;4974313;28;92477;-75
2023/05/08 04:28:46;;;;;;;16.05;13.73;;;11.40;99.90;;;;;;4974203;28;92587;-74
2023/05/08 04:31:15;;;;;;;15.57;13.93;;;11.30;99.90;;;;;;4990163;28;95772;-75
2023/05/08 04:33:44;;;;;;;15.32;13.82;;;11.40;99.90;;;;;;4973984;28;95201;-75
2023/05/08 04:36:12;;;;;;;14.98;13.48;;;11.40;99.90;;;;;;4972949;28;92417;-75
2023/05/08 04:38:41;;;;;;;14.65;12.90;;;11.40;99.90;;;;;;4990272;28;93033;-75
2023/05/08 04:41:09;;;;;;;13.85;12.52;;;11.40;99.90;;;;;;4972363;28;98191;-75
2023/05/08 04:43:36;;;;;;;14.32;12.45;;;11.40;99.90;;;;;;4940822;28;98040;-75
2023/05/08 04:46:05;;;;;;;14.25;12.75;;;11.40;99.90;;;;;;4973780;28;92461;-75
2023/05/08 04:48:32;;;;;;;12.50;11.20;;;11.50;99.90;;;;;;4957308;28;92565;-74
2023/05/08 04:51:00;;;;;;;12.10;11.00;;;11.60;99.90;;;;;;4957486;28;95691;-75
2023/05/08 04:53:27;;;;;;;12.65;11.45;;;12.00;99.90;;;;;;4957252;28;95433;-75
2023/05/08 04:55:54;;;;;;;11.55;10.45;;;12.40;99.90;;;;;;4974057;28;92474;-75
2023/05/08 04:58:21;;;;;;;13.05;11.85;;;12.70;99.90;;;;;;4973625;28;92280;-75
2023/05/08 05:00:49;;;;;;;11.85;10.75;;;12.90;99.90;;;;;;4990189;28;95495;-75
2023/05/08 05:03:16;;;;;;;12.27;11.18;;;13.00;99.90;;;;;;4973323;28;95005;-75
2023/05/08 05:05:43;;;;;;;12.52;11.27;;;13.20;99.90;;;;;;4973700;28;94821;-74
2023/05/08 05:08:10;;;;;;;12.52;11.30;;;13.20;99.90;;;;;;4973613;28;92654;-75
2023/05/08 05:10:40;;;;;;;12.93;11.73;;;13.30;99.90;;;;;;4973086;28;95920;-75
2023/05/08 05:13:07;;;;;;;13.27;12.00;;;13.40;99.90;;;;;;4957107;28;95472;-75
2023/05/08 05:15:34;;;;;;;13.55;12.25;;;13.30;99.90;;;;;;4973348;28;92523;-75
2023/05/08 05:18:01;;;;;;;13.50;12.10;;;13.30;99.90;;;;;;4989819;28;92540;-75
2023/05/08 05:20:28;;;;;;;13.25;11.80;;;13.20;99.90;;;;;;4972410;28;95330;-75
2023/05/08 05:22:56;;;;;;;13.40;12.00;;;13.00;99.90;;;;;;4990176;28;94541;-75
2023/05/08 05:25:24;;;;;;;13.02;11.82;;;12.90;99.90;;;;;;4973284;28;92565;-75
2023/05/08 05:27:51;;;;;;;12.43;11.30;;;13.00;99.90;;;;;;4957260;28;92678;-75
2023/05/08 05:30:18;;;;;;;14.32;12.88;;;13.10;99.90;;;;;;4955681;28;97936;-75
2023/05/08 05:32:45;;;;;;;12.90;11.60;;;13.10;99.90;;;;;;4972947;28;97766;-75
2023/05/08 05:35:12;;;;;;;13.25;12.05;;;13.20;99.90;;;;;;4974687;28;92357;-75
2023/05/08 05:37:40;;;;;;;11.90;10.70;;;13.40;99.90;;;;;;4973180;28;92607;-75
2023/05/08 05:40:08;;;;;;;11.85;10.68;;;13.80;99.90;;;;;;4956649;28;95963;-75
2023/05/08 05:42:36;;;;;;;11.93;10.85;;;14.30;99.90;;;;;;4989143;28;95932;-75
2023/05/08 05:45:04;;;;;;;12.00;10.80;;;14.80;99.90;;;;;;4989572;28;92435;-74
2023/05/08 05:47:31;;;;;;;12.38;11.18;;;15.30;99.90;;;;;;4975135;28;92243;-75
2023/05/08 05:49:59;;;;;;;12.68;10.48;;;15.60;99.90;;;;;;4992771;28;95961;-75
2023/05/08 05:52:26;;;;;;;12.80;11.50;;;15.80;99.90;;;;;;4976100;28;95633;-75
2023/05/08 05:54:52;;;;;;;12.65;11.55;;;15.80;99.90;;;;;;4974803;28;94813;-75
2023/05/08 05:57:19;;;;;;;12.25;11.15;;;15.80;99.90;;;;;;4960441;28;92966;-75
2023/05/08 05:59:46;;;;;;;12.40;11.30;;;15.80;99.90;;;;;;4959627;28;95968;-75
2023/05/08 06:02:17;;;;;;;11.65;10.65;;;15.90;99.90;;;;;;4959600;28;95508;-75
2023/05/08 06:04:44;;;;;;;12.77;11.52;;;16.00;99.90;;;;;;4975914;28;92634;-75
2023/05/08 06:07:11;;;;;;;11.68;10.57;;;16.20;99.90;;;;;;4976111;28;93560;-75
2023/05/08 06:09:38;;;;;;;11.43;10.43;;;16.20;99.90;;;;;;4959509;28;95458;-75
2023/05/08 06:12:05;;;;;;;11.10;10.00;;;16.40;99.90;;;;;;4976387;28;93068;-75
2023/05/08 06:14:32;;;;;;;11.77;10.82;;;16.70;99.90;;;;;;4992430;28;92478;-75
2023/05/08 06:16:59;;;;;;;10.88;9.93;;;16.90;99.90;;;;;;4975848;28;92648;-75
2023/05/08 06:19:27;;;;;;;11.93;10.48;;;17.20;99.90;;;;;;4958637;28;95620;-75
2023/05/08 06:21:54;;;;;;;11.55;10.57;;;17.60;99.90;;;;;;4975252;28;95309;-75
2023/05/08 06:24:21;;;;;;;12.75;11.50;;;17.70;99.90;;;;;;4976087;28;92442;-75
2023/05/08 06:26:48;;;;;;;10.38;9.52;;;17.80;99.90;;;;;;4976938;28;92466;-75
2023/05/08 06:29:15;;;;;;;11.40;10.30;;;17.90;99.90;;;;;;4977649;28;93095;-75
2023/05/08 06:31:42;;;;;;;11.43;10.35;;;18.00;99.90;;;;;;4975238;28;96164;-75
2023/05/08 06:34:09;;;;;;;12.23;11.13;;;18.00;99.90;;;;;;4992098;28;92568;-76
2023/05/08 06:36:36;;;;;;;12.13;10.98;;;17.90;99.90;;;;;;4975973;28;91811;-75
2023/05/08 06:39:07;;;;;;;11.68;10.52;;;17.80;99.90;;;;;;4958557;28;110663;-75
2023/05/08 06:41:34;;;;;;;12.95;11.85;;;17.70;99.90;;;;;;4976934;28;93126;-78
2023/05/08 06:44:01;;;;;;;11.43;10.43;;;17.60;99.90;;;;;;4974205;28;94918;-75
2023/05/08 06:46:28;;;;;;;11.25;10.23;;;17.40;99.90;;;;;;4975686;28;92502;-75
2023/05/08 06:48:55;;;;;;;12.05;10.95;;;17.30;99.90;;;;;;4976574;28;94121;-75
2023/05/08 06:51:22;;;;;;;11.60;10.70;;;17.20;99.90;;;;;;4976643;28;93105;-75
2023/05/08 06:53:49;;;;;;;12.85;11.80;;;17.10;99.90;;;;;;4975049;28;92452;-76
2023/05/08 06:56:16;;;;;;;11.93;10.82;;;17.00;99.90;;;;;;4976757;28;92331;-75
2023/05/08 06:58:43;;;;;;;11.93;10.82;;;17.10;99.90;;;;;;4974180;28;93095;-75
2023/05/08 07:01:22;;;;;;;12.10;11.00;;;17.20;99.90;;;;;;4977002;28;93233;-75
2023/05/08 07:03:49;;;;;;;12.75;11.65;;;17.10;99.90;;;;;;4975237;28;93134;-75
2023/05/08 07:06:16;;;;;;;12.80;11.45;;;17.10;99.90;;;;;;4975201;28;92909;-75
2023/05/08 07:08:43;;;;;;;12.77;11.57;;;17.10;99.90;;;;;;4974940;28;95773;-75
2023/05/08 07:11:10;;;;;;;12.15;10.95;;;17.20;99.90;;;;;;4975805;28;106215;-75
2023/05/08 07:13:37;;;;;;;12.50;11.32;;;17.30;99.90;;;;;;4974937;28;92553;-75
2023/05/08 07:16:10;;;;;;;12.05;11.05;;;17.40;99.90;;;;;;4975251;28;93057;-75
2023/05/08 07:18:37;;;;;;;;;;;17.60;99.90;;;;;;4959297;28;95876;-75
2023/05/08 07:21:04;;;;;;;12.75;11.50;;;17.50;99.90;;;;;;4977625;28;92690;-75
2023/05/08 07:23:31;;;;;;;12.43;11.32;;;17.70;99.90;;;;;;4959142;28;93116;-75
2023/05/08 07:25:58;;;;;;;12.70;11.65;;;17.90;99.90;;;;;;4976610;28;91746;-75
2023/05/08 07:28:25;;;;;;;11.35;10.35;;;18.00;99.90;;;;;;4976115;28;93343;-75
2023/05/08 07:30:52;;;;;;;12.10;11.02;;;18.20;99.90;;;;;;4974482;28;95719;-75
2023/05/08 07:33:19;;;;;;;12.73;11.65;;;18.40;99.90;;;;;;4973952;28;95235;-76
2023/05/08 07:35:46;;;;;;;11.68;10.68;;;18.60;99.90;;;;;;4974499;28;92489;-75
2023/05/08 07:38:13;;;;;;;11.65;10.55;;;18.80;99.90;;;;;;4976030;28;92496;-75
2023/05/08 07:40:40;;;;;;;11.55;10.45;;;18.90;99.90;;;;;;4974183;28;95570;-75
2023/05/08 07:43:07;;;;;;;12.57;11.35;;;19.00;99.90;;;;;;4942318;28;92498;-75
2023/05/08 07:45:34;;;;;;;12.60;11.60;;;19.10;99.90;;;;;;4974840;28;92609;-75
2023/05/08 07:48:02;;;;;;;12.77;11.68;;;19.20;99.90;;;;;;4974589;28;93084;-75
2023/05/08 07:50:29;;;;;;;11.55;10.57;;;19.30;99.90;;;;;;4976199;28;93448;-75
2023/05/08 07:52:56;;;;;;;12.82;11.73;;;19.30;99.90;;;;;;4974449;28;92488;-75
2023/05/08 07:55:23;;;;;;;11.25;10.35;;;19.40;99.90;;;;;;4974549;28;92497;-75
2023/05/08 07:57:50;;;;;;;13.00;11.90;;;19.50;99.90;;;;;;4972701;28;96436;-75
2023/05/08 08:00:17;;;;;;;13.63;12.40;;;19.70;99.90;;;;;;4974123;28;97943;-75
2023/05/08 08:02:44;;;;;;;12.20;11.20;;;19.90;99.90;;;;;;4958587;28;93350;-75
2023/05/08 08:05:11;;;;;;;12.57;11.55;;;20.10;99.90;;;;;;4974253;28;92582;-75
2023/05/08 08:07:38;;;;;;;13.55;12.45;;;20.30;99.90;;;;;;4975617;28;93220;-75
2023/05/08 08:10:06;;;;;;;11.52;10.52;;;20.90;99.90;;;;;;4975374;28;93091;-75
2023/05/08 08:12:33;;;;;;;11.00;10.00;;;21.90;99.90;;;;;;4975494;28;92457;-76
2023/05/08 08:15:00;;;;;;;11.40;10.40;;;23.10;99.20;;;;;;4976045;28;92142;-76
2023/05/08 08:17:27;;;;;;;13.07;12.07;;;24.40;98.00;;;;;;4973909;28;96205;-76
2023/05/08 08:19:55;;;;;;;12.02;11.13;;;25.40;95.20;;;;;;4957675;28;93100;-77
2023/05/08 08:22:24;;;;;;;11.30;10.43;;;26.10;94.60;;;;;;4972697;28;94799;-76
2023/05/08 08:24:53;;;;;;;11.52;10.65;;;26.80;93.00;;;;;;4974301;28;92512;-76
2023/05/08 08:27:21;;;;;;;12.13;11.32;;;27.20;92.10;;;;;;4973944;28;94561;-77
2023/05/08 08:29:49;;;;;;;11.05;10.18;;;27.60;91.10;;;;;;4974159;28;95472;-77
2023/05/08 08:32:18;;;;;;;10.02;9.35;;;27.90;89.80;;;;;;4975082;28;92934;-77
2023/05/08 08:34:45;;;;;;;10.85;10.10;;;28.10;88.90;;;;;;4974368;28;96609;-77
2023/05/08 08:37:12;;;;;;;11.63;10.90;;;28.40;87.80;;;;;;4973803;28;93466;-77
2023/05/08 08:39:42;;;;;;;12.57;11.68;;;28.50;85.80;;;;;;4974260;28;92963;-76
2023/05/08 08:42:11;;;;;;;11.23;10.45;;;28.70;82.50;;;;;;4973883;28;93187;-76
2023/05/08 08:44:38;;;;;;;11.73;10.82;;;28.40;83.10;;;;;;4973813;28;92542;-76
2023/05/08 08:47:09;;;;;;;12.85;11.77;;;28.10;82.50;;;;;;4972072;28;97360;-76
2023/05/08 08:49:42;;;;;;;12.68;11.77;;;28.10;81.60;;;;;;4973678;28;96786;-76
2023/05/08 08:52:40;;;;;;;12.73;11.82;;;28.00;81.20;;;;;;4973559;28;93138;-76
2023/05/08 08:55:13;;;;;;;11.45;10.57;;;27.60;78.00;;;;;;4949508;28;92646;-75
2023/05/08 08:57:54;;;;;;;13.35;12.35;;;26.90;82.40;;;;;;4975167;28;93364;-76
2023/05/08 09:00:24;;;;;;;13.02;12.02;;;26.60;81.60;;;;;;4974823;28;93703;-76
2023/05/08 09:02:51;;;;;;;14.50;13.30;;;26.10;85.30;;;;;;4975295;28;92499;-76
2023/05/08 09:05:22;;;;;;;14.25;13.05;;;25.50;85.80;;;;;;4958030;28;92423;-76
2023/05/08 09:07:53;;;;;;;16.30;15.00;;;24.90;83.90;;;;;;4973473;28;96232;-76
2023/05/08 09:10:22;;;;;;;14.68;13.48;;;24.10;88.90;;;;;;4974826;28;93599;-76
2023/05/08 09:12:49;;;;;;;14.57;13.38;;;23.50;90.60;;;;;;4956107;28;98589;-76
2023/05/08 09:15:16;;;;;;;16.60;15.10;;;23.10;91.20;;;;;;4973675;28;93054;-75
2023/05/08 09:17:43;;;;;;;16.40;15.00;;;22.70;92.20;;;;;;4940825;28;95704;-76
2023/05/08 09:20:12;;;;;;;15.82;14.52;;;22.40;93.20;;;;;;4974572;28;93144;-75
2023/05/08 09:22:40;;;;;;;16.27;14.88;;;22.00;93.50;;;;;;4991646;28;92525;-75
2023/05/08 09:25:07;;;;;;;15.75;14.45;;;21.80;94.80;;;;;;4976623;28;92452;-75
2023/05/08 09:27:35;;;;;;;16.58;15.18;;;21.70;95.50;;;;;;4976858;28;93138;-75
2023/05/08 09:30:08;;;;;;;15.68;14.25;;;21.60;95.80;;;;;;4960687;28;95765;-75
2023/05/08 09:32:41;;;;;;;16.10;14.45;;;21.50;96.20;;;;;;4976724;28;92450;-75
2023/05/08 09:35:09;;;;;;;16.48;15.02;;;21.30;96.80;;;;;;4978073;28;92346;-75
2023/05/08 09:37:38;;;;;;;14.52;13.23;;;21.20;97.10;;;;;;4975040;28;95664;-75
2023/05/08 09:40:21;;;;;;;16.13;14.75;;;21.10;97.30;;;;;;4977451;28;95218;-75
2023/05/08 09:42:49;;;;;;;16.60;15.10;;;21.00;96.70;;;;;;4960195;28;92555;-75
2023/05/08 09:45:30;;;;;;;16.30;14.82;;;20.80;97.20;;;;;;4977695;28;92626;-75
2023/05/08 09:47:58;;;;;;;16.05;14.65;;;20.80;98.20;;;;;;4977863;28;93205;-75
2023/05/08 09:50:26;;;;;;;16.60;15.10;;;20.70;98.60;;;;;;4977464;28;93436;-77
2023/05/08 09:52:53;;;;;;;15.95;14.55;;;20.70;98.50;;;;;;4977903;28;92328;-77
2023/05/08 09:55:20;;;;;;;17.77;16.27;;;20.70;98.80;;;;;;4978056;28;91716;-77
2023/05/08 09:57:56;;;;;;;14.77;13.50;;;20.60;99.20;;;;;;4959808;28;95674;-77
2023/05/08 10:00:28;;;;;;;16.20;14.70;;;20.70;98.50;;;;;;4977032;28;92514;-77
2023/05/08 10:02:56;;;;;;;15.40;14.10;;;20.80;99.70;;;;;;4975066;28;94827;-77
2023/05/08 10:05:26;;;;;;;16.05;14.63;;;20.90;99.40;;;;;;4992495;28;92525;-77
2023/05/08 10:07:53;;;;;;;15.50;14.13;;;20.90;99.20;;;;;;4977612;28;93072;-77
2023/05/08 10:10:25;;;;;;;16.95;15.55;;;21.00;99.00;;;;;;4976936;28;101970;-77
2023/05/08 10:12:57;;;;;;;17.20;15.70;;;21.00;98.70;;;;;;4977143;28;92409;-77
2023/05/08 10:15:27;;;;;;;16.55;15.05;;;21.00;98.90;;;;;;4992498;28;93073;-77
2023/05/08 10:18:06;;;;;;;16.92;15.63;;;20.90;99.50;;;;;;4975844;28;96074;-77
2023/05/08 10:20:41;;;;;;;15.65;14.25;;;21.10;99.90;;;;;;4975654;28;93629;-77
2023/05/08 10:23:13;;;;;;;15.98;14.68;;;21.10;99.60;;;;;;4975773;28;92456;-77
2023/05/08 10:25:51;;;;;;;15.13;13.73;;;21.30;99.90;;;;;;4959690;28;92442;-77
2023/05/08 10:28:23;;;;;;;16.30;14.57;;;21.20;99.30;;;;;;4975690;28;95785;-77
2023/05/08 10:30:55;;;;;;;17.58;16.00;;;21.30;99.50;;;;;;4975625;28;98013;-77
2023/05/08 10:33:27;;;;;;;17.52;15.98;;;21.40;99.10;;;;;;4974702;28;92502;-77
2023/05/08 10:35:56;;;;;;;15.82;14.52;;;21.40;99.10;;;;;;4975713;28;93029;-77
2023/05/08 10:38:24;;;;;;;17.13;15.63;;;21.40;99.50;;;;;;4976811;28;93133;-77
2023/05/08 10:40:56;;;;;;;18.33;16.55;;;21.30;99.60;;;;;;4976727;28;93066;-77
2023/05/08 10:43:24;;;;;;;16.45;15.02;;;21.40;98.90;;;;;;4975406;28;93100;-78
2023/05/08 10:45:53;;;;;;;17.90;16.25;;;21.50;99.90;;;;;;4992473;28;91751;-77
2023/05/08 10:48:45;;;;;;;16.20;14.80;;;21.60;99.40;;;;;;4976142;28;93477;-77
2023/05/08 10:51:36;;;;;;;15.90;14.60;;;21.90;98.40;;;;;;4975618;28;93092;-77
2023/05/08 10:54:23;;;;;;;16.67;15.20;;;22.00;99.10;;;;;;4974165;28;94818;-77
2023/05/08 10:56:50;;;;;;;16.10;14.70;;;22.10;98.20;;;;;;4976465;28;94126;-77
2023/05/08 10:59:18;;;;;;;16.75;15.30;;;22.20;99.00;;;;;;4976303;28;93450;-77
2023/05/08 11:01:49;;;;;;;15.38;14.05;;;22.40;98.70;;;;;;4976413;28;93249;-77
2023/05/08 11:04:21;;;;;;;17.20;15.70;;;22.40;98.50;;;;;;4976669;28;92354;-77
2023/05/08 11:06:51;;;;;;;16.55;14.68;;;22.60;98.60;;;;;;4976676;28;92350;-77
2023/05/08 11:09:27;;;;;;;18.25;16.52;;;22.60;98.50;;;;;;4976258;28;93263;-77
2023/05/08 11:12:11;;;;;;;16.02;14.45;;;22.60;98.70;;;;;;4975655;28;93072;-77
2023/05/08 11:14:41;;;;;;;13.18;12.10;;;22.40;97.60;;;;;;4976436;28;92463;-77
2023/05/08 11:17:09;;;;;;;16.58;15.15;;;22.50;99.20;;;;;;4975636;28;92999;-77
2023/05/08 11:19:37;;;;;;;15.60;14.10;;;22.60;99.70;;;;;;4974719;28;95615;-77
2023/05/08 11:22:12;;;;;;;16.98;15.48;;;22.80;99.40;;;;;;4942098;28;96661;-77
2023/05/08 11:24:47;;;;;;;17.35;15.82;;;22.80;98.00;;;;;;4976450;28;92496;-77
2023/05/08 11:27:14;;;;;;;16.30;14.88;;;22.70;97.50;;;;;;4979385;28;92518;-77
2023/05/08 11:29:43;;;;;;;17.48;15.88;;;22.70;98.40;;;;;;4981469;28;110692;-77
2023/05/08 11:32:10;;;;;;;15.07;13.77;;;22.70;98.20;;;;;;4974702;28;95935;-77
2023/05/08 11:34:40;;;;;;;13.68;12.50;;;22.70;98.10;;;;;;4958531;28;92423;-77
2023/05/08 11:37:09;;;;;;;13.43;12.27;;;22.90;98.80;;;;;;4958994;28;91797;-77
2023/05/08 11:39:36;;;;;;;16.15;14.70;;;23.00;99.00;;;;;;4974583;28;93264;-78
2023/05/08 11:42:28;;;;;;;15.30;13.98;;;23.20;98.70;;;;;;4975981;28;93393;-77
2023/05/08 11:45:06;;;;;;;15.13;13.52;;;23.40;98.20;;;;;;4974392;28;94741;-77
2023/05/08 11:47:42;;;;;;;15.10;13.80;;;23.50;98.40;;;;;;4974978;28;92561;-77
2023/05/08 11:50:10;;;;;;;13.82;12.60;;;23.70;98.80;;;;;;4958270;28;96149;-77
2023/05/08 11:52:39;;;;;;;14.73;13.32;;;23.90;99.20;;;;;;4974186;28;95655;-77
2023/05/08 11:55:11;;;;;;;15.70;14.20;;;24.10;99.30;;;;;;4975775;28;92488;-77
2023/05/08 11:57:38;;;;;;;12.40;11.23;;;24.10;97.00;;;;;;4975703;28;92459;-77
2023/05/08 12:00:10;;;;;;;14.00;12.68;;;24.20;98.20;;;;;;4975734;28;93098;-77
2023/05/08 12:02:38;;;;;;;14.55;13.35;;;24.30;97.80;;;;;;4976109;28;93418;-77
2023/05/08 12:05:08;;;;;;;14.75;13.40;;;24.40;98.10;;;;;;4975774;28;92384;-77
2023/05/08 12:07:43;;;;;;;23.52;13.23;;;24.50;97.50;;;;;;4974256;28;92541;-77
2023/05/08 12:10:10;;;;;;;15.95;14.55;;;24.50;97.00;;;;;;4974445;28;95695;-77
2023/05/08 12:12:42;;;;;;;15.60;14.02;;;24.50;97.10;;;;;;4974024;28;95890;-77
2023/05/08 12:15:12;;;;;;;15.45;13.98;;;24.40;95.00;;;;;;4974648;28;92449;-77
2023/05/08 12:17:39;;;;;;;16.95;15.55;;;24.10;95.60;;;;;;4974056;28;92395;-77
2023/05/08 12:20:16;;;;;;;15.38;13.98;;;24.10;96.30;;;;;;4975456;28;93921;-77
2023/05/08 12:22:51;;;;;;;14.65;13.30;;;24.10;97.10;;;;;;4974002;28;93126;-77
2023/05/08 12:25:18;;;;;;;12.05;10.40;;;24.20;96.20;;;;;;4975565;28;92653;-77
2023/05/08 12:27:46;;;;;;;10.65;9.75;;;24.20;97.60;;;;;;4975698;28;91698;-77
2023/05/08 12:30:13;;;;;;;12.55;11.27;;;24.40;97.70;;;;;;4958212;28;94754;-77
2023/05/08 12:32:42;;;;;;;14.93;13.63;;;24.60;97.30;;;;;;4974898;28;92983;-77
2023/05/08 12:35:10;;;;;;;14.60;13.13;;;24.70;96.40;;;;;;4956855;28;94904;-77
2023/05/08 12:37:38;;;;;;;17.67;16.08;;;24.80;97.30;;;;;;4974973;28;92501;-77
2023/05/08 12:40:05;;;;;;;14.95;13.65;;;24.70;96.80;;;;;;4957521;28;95711;-77
2023/05/08 12:42:46;;;;;;;15.45;13.93;;;24.90;97.80;;;;;;4974782;28;92851;-77
2023/05/08 12:45:22;;;;;;;16.08;14.65;;;25.10;97.70;;;;;;4974344;28;92446;-77